sensor_id;sensor_type;location;lat;lon;timestamp;temperature;humidity
6421;DHT22;3243;50.958;7.012;2024-03-08T00:04:33;3.80;99.90
6421;DHT22;3243;50.958;7.012;2024-03-08T00:07:00;3.80;99.90
6421;DHT22;3243;50.958;7.012;2024-03-08T00:09:27;3.80;99.90
6421;DHT22;3243;50.958;7.012;2024-03-08T00:14:21;3.80;99.90
6421;DHT22;3243;50.958;7.012;2024-03-08T00:24:10;3.80;99.90
6421;DHT22;3243;50.958;7.012;2024-03-08T00:31:31;3.70;99.90
6421;DHT22;3243;50.958;7.012;2024-03-08T00:36:26;3.80;99.90
6421;DHT22;3243;50.958;7.012;2024-03-08T00:41:20;3.80;99.90
6421;DHT22;3243;50.958;7.012;2024-03-08T00:51:10;3.70;99.90
6421;DHT22;3243;50.958;7.012;2024-03-08T00:53:37;3.70;99.90
6421;DHT22;3243;50.958;7.012;2024-03-08T00:58:31;3.60;99.90
6421;DHT22;3243;50.958;7.012;2024-03-08T01:08:20;3.50;99.90
6421;DHT22;3243;50.958;7.012;2024-03-08T01:10:47;3.50;99.90
6421;DHT22;3243;50.958;7.012;2024-03-08T01:15:41;3.40;99.90
6421;DHT22;3243;50.958;7.012;2024-03-08T01:32:59;3.20;99.90
6421;DHT22;3243;50.958;7.012;2024-03-08T01:35:26;3.10;99.90
6421;DHT22;3243;50.958;7.012;2024-03-08T01:45:16;3.10;99.90
6421;DHT22;3243;50.958;7.012;2024-03-08T01:50:10;3.10;99.90
6421;DHT22;3243;50.958;7.012;2024-03-08T01:55:05;3.10;99.90
6421;DHT22;3243;50.958;7.012;2024-03-08T02:00:02;3.20;99.90
6421;DHT22;3243;50.958;7.012;2024-03-08T02:02:32;3.20;99.90
6421;DHT22;3243;50.958;7.012;2024-03-08T02:05:01;3.20;99.90
6421;DHT22;3243;50.958;7.012;2024-03-08T02:07:28;3.20;99.90
6421;DHT22;3243;50.958;7.012;2024-03-08T02:14:49;3.10;99.90
6421;DHT22;3243;50.958;7.012;2024-03-08T02:19:43;3.10;99.90
6421;DHT22;3243;50.958;7.012;2024-03-08T02:22:10;3.00;99.90
6421;DHT22;3243;50.958;7.012;2024-03-08T02:31:59;3.00;99.90
6421;DHT22;3243;50.958;7.012;2024-03-08T02:36:53;3.00;99.90
6421;DHT22;3243;50.958;7.012;2024-03-08T02:39:20;3.00;99.90
6421;DHT22;3243;50.958;7.012;2024-03-08T02:46:41;2.90;99.90
6421;DHT22;3243;50.958;7.012;2024-03-08T03:01:29;3.00;99.90
6421;DHT22;3243;50.958;7.012;2024-03-08T03:06:24;3.00;99.90
6421;DHT22;3243;50.958;7.012;2024-03-08T03:08:52;3.00;99.90
6421;DHT22;3243;50.958;7.012;2024-03-08T03:11:19;3.00;99.90
6421;DHT22;3243;50.958;7.012;2024-03-08T03:16:19;2.90;99.90
6421;DHT22;3243;50.958;7.012;2024-03-08T03:23:44;2.80;99.90
6421;DHT22;3243;50.958;7.012;2024-03-08T03:28:39;2.80;99.90
6421;DHT22;3243;50.958;7.012;2024-03-08T03:33:36;2.80;99.90
6421;DHT22;3243;50.958;7.012;2024-03-08T03:36:04;2.80;99.90
6421;DHT22;3243;50.958;7.012;2024-03-08T03:38:32;2.90;99.90
6421;DHT22;3243;50.958;7.012;2024-03-08T03:41:00;2.80;99.90
6421;DHT22;3243;50.958;7.012;2024-03-08T03:48:28;2.80;99.90
6421;DHT22;3243;50.958;7.012;2024-03-08T03:50:55;2.80;99.90
6421;DHT22;3243;50.958;7.012;2024-03-08T03:58:16;2.80;99.90
6421;DHT22;3243;50.958;7.012;2024-03-08T04:00:48;2.70;99.90
6421;DHT22;3243;50.958;7.012;2024-03-08T04:10:38;2.60;99.90
6421;DHT22;3243;50.958;7.012;2024-03-08T04:13:05;2.60;99.90
6421;DHT22;3243;50.958;7.012;2024-03-08T04:17:59;2.70;99.90
6421;DHT22;3243;50.958;7.012;2024-03-08T04:20:27;2.80;99.90
6421;DHT22;3243;50.958;7.012;2024-03-08T04:25:21;2.80;99.90
6421;DHT22;3243;50.958;7.012;2024-03-08T04:27:48;2.90;99.90
6421;DHT22;3243;50.958;7.012;2024-03-08T04:32:43;2.90;99.90
6421;DHT22;3243;50.958;7.012;2024-03-08T04:45:01;2.80;99.90
6421;DHT22;3243;50.958;7.012;2024-03-08T04:49:56;2.80;99.90
6421;DHT22;3243;50.958;7.012;2024-03-08T04:54:51;2.90;99.90
6421;DHT22;3243;50.958;7.012;2024-03-08T04:59:46;2.80;99.90
6421;DHT22;3243;50.958;7.012;2024-03-08T05:04:40;2.90;99.90
6421;DHT22;3243;50.958;7.012;2024-03-08T05:16:58;2.90;99.90
6421;DHT22;3243;50.958;7.012;2024-03-08T05:19:27;2.90;99.90
6421;DHT22;3243;50.958;7.012;2024-03-08T05:22:00;2.90;99.90
6421;DHT22;3243;50.958;7.012;2024-03-08T05:24:27;2.90;99.90
6421;DHT22;3243;50.958;7.012;2024-03-08T05:29:21;2.80;99.90
6421;DHT22;3243;50.958;7.012;2024-03-08T05:36:43;2.80;99.90
6421;DHT22;3243;50.958;7.012;2024-03-08T05:39:18;2.80;99.90
6421;DHT22;3243;50.958;7.012;2024-03-08T05:44:13;2.80;99.90
6421;DHT22;3243;50.958;7.012;2024-03-08T05:46:40;2.70;99.90
6421;DHT22;3243;50.958;7.012;2024-03-08T06:01:36;2.50;99.90
6421;DHT22;3243;50.958;7.012;2024-03-08T06:08:58;2.50;99.90
6421;DHT22;3243;50.958;7.012;2024-03-08T06:13:58;2.70;99.90
6421;DHT22;3243;50.958;7.012;2024-03-08T06:16:27;2.70;99.90
6421;DHT22;3243;50.958;7.012;2024-03-08T06:18:57;2.70;99.90
6421;DHT22;3243;50.958;7.012;2024-03-08T06:21:27;2.80;99.90
6421;DHT22;3243;50.958;7.012;2024-03-08T06:23:54;2.80;99.90
6421;DHT22;3243;50.958;7.012;2024-03-08T06:26:27;2.80;99.90
6421;DHT22;3243;50.958;7.012;2024-03-08T06:33:52;2.90;99.90
6421;DHT22;3243;50.958;7.012;2024-03-08T06:38:50;2.90;99.90
6421;DHT22;3243;50.958;7.012;2024-03-08T06:43:45;3.10;99.90
6421;DHT22;3243;50.958;7.012;2024-03-08T06:46:12;3.10;99.90
6421;DHT22;3243;50.958;7.012;2024-03-08T06:48:39;3.20;99.90
6421;DHT22;3243;50.958;7.012;2024-03-08T06:53:34;3.20;99.90
6421;DHT22;3243;50.958;7.012;2024-03-08T06:56:02;3.30;99.90
6421;DHT22;3243;50.958;7.012;2024-03-08T07:05:56;3.40;99.90
6421;DHT22;3243;50.958;7.012;2024-03-08T07:08:25;3.40;99.90
6421;DHT22;3243;50.958;7.012;2024-03-08T07:10:54;3.40;99.90
6421;DHT22;3243;50.958;7.012;2024-03-08T07:20:42;3.60;99.90
6421;DHT22;3243;50.958;7.012;2024-03-08T07:23:10;3.70;99.90
6421;DHT22;3243;50.958;7.012;2024-03-08T07:25:37;3.70;99.90
6421;DHT22;3243;50.958;7.012;2024-03-08T07:33:13;4.00;99.90
6421;DHT22;3243;50.958;7.012;2024-03-08T07:40:39;4.30;99.90
6421;DHT22;3243;50.958;7.012;2024-03-08T07:43:08;4.30;99.90
6421;DHT22;3243;50.958;7.012;2024-03-08T07:45:35;4.40;99.90
6421;DHT22;3243;50.958;7.012;2024-03-08T07:48:03;4.60;99.90
6421;DHT22;3243;50.958;7.012;2024-03-08T07:52:59;4.70;99.90
6421;DHT22;3243;50.958;7.012;2024-03-08T08:12:49;5.50;99.90
6421;DHT22;3243;50.958;7.012;2024-03-08T08:15:15;5.50;99.90
6421;DHT22;3243;50.958;7.012;2024-03-08T08:17:46;5.60;99.90
6421;DHT22;3243;50.958;7.012;2024-03-08T08:20:13;5.70;99.90
6421;DHT22;3243;50.958;7.012;2024-03-08T08:27:35;5.90;99.90
6421;DHT22;3243;50.958;7.012;2024-03-08T08:32:38;6.10;99.90
6421;DHT22;3243;50.958;7.012;2024-03-08T08:37:39;6.20;99.90
6421;DHT22;3243;50.958;7.012;2024-03-08T08:40:07;6.30;99.90
6421;DHT22;3243;50.958;7.012;2024-03-08T08:42:41;6.30;99.90
6421;DHT22;3243;50.958;7.012;2024-03-08T08:45:08;6.40;99.90
6421;DHT22;3243;50.958;7.012;2024-03-08T08:52:40;6.60;99.90
6421;DHT22;3243;50.958;7.012;2024-03-08T08:57:35;6.60;99.90
6421;DHT22;3243;50.958;7.012;2024-03-08T09:00:03;6.70;99.90
6421;DHT22;3243;50.958;7.012;2024-03-08T09:02:34;6.70;99.90
6421;DHT22;3243;50.958;7.012;2024-03-08T09:12:26;6.60;99.90
6421;DHT22;3243;50.958;7.012;2024-03-08T09:14:52;7.10;99.90
6421;DHT22;3243;50.958;7.012;2024-03-08T09:22:15;7.30;99.90
6421;DHT22;3243;50.958;7.012;2024-03-08T09:37:05;7.60;99.90
6421;DHT22;3243;50.958;7.012;2024-03-08T09:42:01;7.70;99.90
6421;DHT22;3243;50.958;7.012;2024-03-08T09:49:26;7.90;99.90
6421;DHT22;3243;50.958;7.012;2024-03-08T09:51:53;8.00;99.90
6421;DHT22;3243;50.958;7.012;2024-03-08T09:54:20;8.10;99.90
6421;DHT22;3243;50.958;7.012;2024-03-08T09:56:51;8.30;99.90
6421;DHT22;3243;50.958;7.012;2024-03-08T09:59:18;8.30;99.90
6421;DHT22;3243;50.958;7.012;2024-03-08T10:06:50;8.60;99.90
6421;DHT22;3243;50.958;7.012;2024-03-08T10:11:45;8.60;99.90
6421;DHT22;3243;50.958;7.012;2024-03-08T10:16:40;8.60;99.90
6421;DHT22;3243;50.958;7.012;2024-03-08T10:31:25;9.10;99.90
6421;DHT22;3243;50.958;7.012;2024-03-08T10:33:52;9.20;99.90
6421;DHT22;3243;50.958;7.012;2024-03-08T10:36:19;9.30;99.90
6421;DHT22;3243;50.958;7.012;2024-03-08T10:41:15;9.30;99.90
6421;DHT22;3243;50.958;7.012;2024-03-08T10:49:12;9.50;99.90
6421;DHT22;3243;50.958;7.012;2024-03-08T10:51:45;9.60;99.90
6421;DHT22;3243;50.958;7.012;2024-03-08T10:54:14;9.60;99.90
6421;DHT22;3243;50.958;7.012;2024-03-08T10:56:42;9.70;99.90
6421;DHT22;3243;50.958;7.012;2024-03-08T10:59:09;9.80;99.90
6421;DHT22;3243;50.958;7.012;2024-03-08T11:04:04;9.80;99.90
6421;DHT22;3243;50.958;7.012;2024-03-08T11:06:42;9.80;99.90
6421;DHT22;3243;50.958;7.012;2024-03-08T11:09:31;9.80;99.90
6421;DHT22;3243;50.958;7.012;2024-03-08T11:12:22;9.80;99.90
6421;DHT22;3243;50.958;7.012;2024-03-08T11:14:53;9.90;99.90
6421;DHT22;3243;50.958;7.012;2024-03-08T11:18:07;10.00;99.90
6421;DHT22;3243;50.958;7.012;2024-03-08T11:22:55;10.10;99.90
6421;DHT22;3243;50.958;7.012;2024-03-08T11:28:16;10.10;99.90
6421;DHT22;3243;50.958;7.012;2024-03-08T11:33:12;10.10;99.90
6421;DHT22;3243;50.958;7.012;2024-03-08T11:35:42;10.20;99.90
6421;DHT22;3243;50.958;7.012;2024-03-08T11:38:09;10.30;99.90
6421;DHT22;3243;50.958;7.012;2024-03-08T11:45:37;10.40;99.90
6421;DHT22;3243;50.958;7.012;2024-03-08T11:48:04;10.50;99.90
6421;DHT22;3243;50.958;7.012;2024-03-08T11:50:31;10.50;99.90
6421;DHT22;3243;50.958;7.012;2024-03-08T11:53:05;10.50;99.90
6421;DHT22;3243;50.958;7.012;2024-03-08T11:58:03;10.60;99.90
6421;DHT22;3243;50.958;7.012;2024-03-08T12:03:06;10.60;99.90
6421;DHT22;3243;50.958;7.012;2024-03-08T12:05:34;10.70;99.90
6421;DHT22;3243;50.958;7.012;2024-03-08T12:08:02;10.60;99.90
6421;DHT22;3243;50.958;7.012;2024-03-08T12:12:58;10.70;99.90
6421;DHT22;3243;50.958;7.012;2024-03-08T12:20:28;10.80;99.90
6421;DHT22;3243;50.958;7.012;2024-03-08T12:22:56;10.80;99.90
6421;DHT22;3243;50.958;7.012;2024-03-08T12:25:31;10.90;99.90
6421;DHT22;3243;50.958;7.012;2024-03-08T12:28:11;11.00;99.90
6421;DHT22;3243;50.958;7.012;2024-03-08T12:30:50;11.00;99.90
6421;DHT22;3243;50.958;7.012;2024-03-08T12:35:52;11.10;99.90
6421;DHT22;3243;50.958;7.012;2024-03-08T12:38:28;11.00;99.90
6421;DHT22;3243;50.958;7.012;2024-03-08T12:40:57;11.00;99.90
6421;DHT22;3243;50.958;7.012;2024-03-08T12:43:25;11.00;99.90
6421;DHT22;3243;50.958;7.012;2024-03-08T12:48:19;11.00;99.90
6421;DHT22;3243;50.958;7.012;2024-03-08T12:53:14;11.10;99.90
6421;DHT22;3243;50.958;7.012;2024-03-08T12:58:09;11.10;99.90
6421;DHT22;3243;50.958;7.012;2024-03-08T13:03:04;11.20;99.90
6421;DHT22;3243;50.958;7.012;2024-03-08T13:20:17;11.30;99.90
6421;DHT22;3243;50.958;7.012;2024-03-08T13:22:57;11.30;99.90
6421;DHT22;3243;50.958;7.012;2024-03-08T13:30:22;11.30;99.90
6421;DHT22;3243;50.958;7.012;2024-03-08T13:32:53;11.30;99.90
6421;DHT22;3243;50.958;7.012;2024-03-08T13:40:22;11.30;99.90
6421;DHT22;3243;50.958;7.012;2024-03-08T13:42:49;11.30;99.90
6421;DHT22;3243;50.958;7.012;2024-03-08T13:45:16;11.40;99.90
6421;DHT22;3243;50.958;7.012;2024-03-08T13:47:51;11.40;99.90
6421;DHT22;3243;50.958;7.012;2024-03-08T13:50:21;11.40;99.90
6421;DHT22;3243;50.958;7.012;2024-03-08T13:52:50;11.30;99.90
6421;DHT22;3243;50.958;7.012;2024-03-08T13:57:49;11.50;99.90
6421;DHT22;3243;50.958;7.012;2024-03-08T14:02:49;11.50;99.90
6421;DHT22;3243;50.958;7.012;2024-03-08T14:05:16;11.60;99.90
6421;DHT22;3243;50.958;7.012;2024-03-08T14:10:14;11.60;99.90
6421;DHT22;3243;50.958;7.012;2024-03-08T14:12:41;11.60;99.90
6421;DHT22;3243;50.958;7.012;2024-03-08T14:32:26;11.60;99.90
6421;DHT22;3243;50.958;7.012;2024-03-08T14:34:55;11.60;99.90
6421;DHT22;3243;50.958;7.012;2024-03-08T14:37:22;11.60;99.90
6421;DHT22;3243;50.958;7.012;2024-03-08T14:39:54;11.60;99.90
6421;DHT22;3243;50.958;7.012;2024-03-08T14:42:22;11.60;99.90
6421;DHT22;3243;50.958;7.012;2024-03-08T14:47:20;11.60;99.90
6421;DHT22;3243;50.958;7.012;2024-03-08T14:49:48;11.60;99.90
6421;DHT22;3243;50.958;7.012;2024-03-08T14:57:24;11.70;99.90
6421;DHT22;3243;50.958;7.012;2024-03-08T14:59:51;11.40;99.90
6421;DHT22;3243;50.958;7.012;2024-03-08T15:12:24;12.10;99.90
6421;DHT22;3243;50.958;7.012;2024-03-08T16:11:57;11.40;99.90
6421;DHT22;3243;50.958;7.012;2024-03-08T16:19:19;11.20;99.90
6421;DHT22;3243;50.958;7.012;2024-03-08T16:24:13;11.20;99.90
6421;DHT22;3243;50.958;7.012;2024-03-08T16:41:26;10.90;99.90
6421;DHT22;3243;50.958;7.012;2024-03-08T16:48:48;10.30;99.90
6421;DHT22;3243;50.958;7.012;2024-03-08T17:03:37;10.20;99.90
6421;DHT22;3243;50.958;7.012;2024-03-08T17:16:15;9.90;99.90
6421;DHT22;3243;50.958;7.012;2024-03-08T17:31:08;9.40;99.90
6421;DHT22;3243;50.958;7.012;2024-03-08T17:43:50;9.50;99.90
6421;DHT22;3243;50.958;7.012;2024-03-08T17:48:46;8.90;99.90
6421;DHT22;3243;50.958;7.012;2024-03-08T18:03:30;8.90;99.90
6421;DHT22;3243;50.958;7.012;2024-03-08T18:18:15;9.00;99.90
6421;DHT22;3243;50.958;7.012;2024-03-08T18:20:43;8.40;99.90
6421;DHT22;3243;50.958;7.012;2024-03-08T18:35:41;8.40;99.90
6421;DHT22;3243;50.958;7.012;2024-03-08T18:43:12;8.20;99.90
6421;DHT22;3243;50.958;7.012;2024-03-08T18:48:08;8.50;99.90
6421;DHT22;3243;50.958;7.012;2024-03-08T18:55:33;7.90;99.90
6421;DHT22;3243;50.958;7.012;2024-03-08T19:03:05;8.10;99.90
6421;DHT22;3243;50.958;7.012;2024-03-08T19:12:57;7.90;99.90
6421;DHT22;3243;50.958;7.012;2024-03-08T19:17:53;7.60;99.90
6421;DHT22;3243;50.958;7.012;2024-03-08T19:25:22;7.20;99.90
6421;DHT22;3243;50.958;7.012;2024-03-08T19:47:45;6.90;99.90
6421;DHT22;3243;50.958;7.012;2024-03-08T20:02:53;6.60;99.90
6421;DHT22;3243;50.958;7.012;2024-03-08T20:07:54;6.60;99.90
6421;DHT22;3243;50.958;7.012;2024-03-08T20:10:22;6.70;99.90
6421;DHT22;3243;50.958;7.012;2024-03-08T20:12:51;6.80;99.90
6421;DHT22;3243;50.958;7.012;2024-03-08T20:30:20;7.10;99.90
6421;DHT22;3243;50.958;7.012;2024-03-08T20:55:19;7.40;99.90
6421;DHT22;3243;50.958;7.012;2024-03-08T21:20:39;7.30;99.90
6421;DHT22;3243;50.958;7.012;2024-03-08T21:33:05;7.00;99.90
6421;DHT22;3243;50.958;7.012;2024-03-08T21:35:38;6.60;99.90
6421;DHT22;3243;50.958;7.012;2024-03-08T21:38:05;6.90;99.90
6421;DHT22;3243;50.958;7.012;2024-03-08T21:40:34;6.80;99.90
6421;DHT22;3243;50.958;7.012;2024-03-08T21:43:03;6.80;99.90
6421;DHT22;3243;50.958;7.012;2024-03-08T21:50:30;7.10;99.90
6421;DHT22;3243;50.958;7.012;2024-03-08T21:52:57;6.90;99.90
6421;DHT22;3243;50.958;7.012;2024-03-08T22:07:50;6.30;99.90
6421;DHT22;3243;50.958;7.012;2024-03-08T22:10:18;6.40;99.90
6421;DHT22;3243;50.958;7.012;2024-03-08T22:25:29;6.20;99.90
6421;DHT22;3243;50.958;7.012;2024-03-08T22:30:25;6.00;99.90
6421;DHT22;3243;50.958;7.012;2024-03-08T22:35:23;6.80;99.90
6421;DHT22;3243;50.958;7.012;2024-03-08T22:37:52;6.10;99.90
6421;DHT22;3243;50.958;7.012;2024-03-08T22:42:51;6.40;99.90
6421;DHT22;3243;50.958;7.012;2024-03-08T22:47:46;6.90;99.90
6421;DHT22;3243;50.958;7.012;2024-03-08T22:52:44;5.90;99.90
6421;DHT22;3243;50.958;7.012;2024-03-08T22:55:16;5.70;99.90
6421;DHT22;3243;50.958;7.012;2024-03-08T22:57:48;5.60;99.90
6421;DHT22;3243;50.958;7.012;2024-03-08T23:00:16;6.60;99.90
6421;DHT22;3243;50.958;7.012;2024-03-08T23:03:04;5.70;99.90
6421;DHT22;3243;50.958;7.012;2024-03-08T23:05:36;5.30;99.90
6421;DHT22;3243;50.958;7.012;2024-03-08T23:13:06;5.50;99.90
6421;DHT22;3243;50.958;7.012;2024-03-08T23:15:36;5.50;99.90
6421;DHT22;3243;50.958;7.012;2024-03-08T23:18:08;5.50;99.90
6421;DHT22;3243;50.958;7.012;2024-03-08T23:38:05;5.50;99.90
6421;DHT22;3243;50.958;7.012;2024-03-08T23:45:31;5.70;99.90
6421;DHT22;3243;50.958;7.012;2024-03-08T23:53:00;5.70;99.90
